Time;durP1;ratioP1;P1;durP2;ratioP2;P2;SDS_P1;SDS_P2;PMS_P1;PMS_P2;Temp;Humidity;BMP_temperature;BMP_pressure;BME280_temperature;BME280_humidity;BME280_pressure;Samples;Min_cycle;Max_cycle;Signal;HPM_P1;HPM_P2
2021/03/09 00:00:11;;;;;;;13.18;3.35;;;;;;;-1.80;58.37;101534.13;4996563;28;20080;-72
2021/03/09 00:02:37;;;;;;;10.02;3.30;;;;;;;-1.65;58.35;101533.34;5002977;28;20167;-72
2021/03/09 00:05:05;;;;;;;6.35;2.95;;;;;;;-1.61;57.67;101542.84;5007780;28;20050;-72
2021/03/09 00:07:32;;;;;;;10.85;2.88;;;;;;;-1.66;58.31;101534.22;5015527;28;20057;-73
2021/03/09 00:09:58;;;;;;;8.95;3.30;;;;;;;-1.67;58.02;101532.47;4993177;28;20147;-72
2021/03/09 00:12:26;;;;;;;6.22;2.55;;;;;;;-1.57;58.00;101533.41;5019414;28;20075;-70
2021/03/09 00:14:52;;;;;;;7.60;3.33;;;;;;;-1.65;57.88;101530.78;4999869;28;20445;-72
2021/03/09 00:17:30;;;;;;;6.55;2.50;;;;;;;-1.57;57.48;101539.44;5008908;28;20416;-71
2021/03/09 00:19:58;;;;;;;7.00;3.28;;;;;;;-1.73;58.13;101531.59;4993816;28;20132;-71
2021/03/09 00:22:24;;;;;;;10.38;3.33;;;;;;;-1.65;58.11;101530.78;5011905;28;20052;-70
2021/03/09 00:24:51;;;;;;;8.35;2.85;;;;;;;-1.64;57.72;101534.22;5011800;28;20652;-70
2021/03/09 00:27:18;;;;;;;8.60;3.22;;;;;;;-1.67;57.99;101529.03;4999997;28;20047;-70
2021/03/09 00:29:44;;;;;;;9.30;2.85;;;;;;;-1.66;58.09;101531.63;5011241;28;21813;-70
2021/03/09 00:32:11;;;;;;;13.82;3.55;;;;;;;-1.73;58.22;101529.00;4999003;28;20058;-71
2021/03/09 00:34:38;;;;;;;11.32;2.80;;;;;;;-1.76;58.08;101527.25;4990582;28;20048;-70
2021/03/09 00:37:05;;;;;;;11.00;3.15;;;;;;;-1.70;58.05;101532.47;5018238;28;20140;-71
2021/03/09 00:39:33;;;;;;;6.05;2.90;;;;;;;-1.72;57.88;101525.56;4985899;28;20065;-71
2021/03/09 00:41:59;;;;;;;10.95;3.20;;;;;;;-1.79;58.47;101520.38;4984993;28;20500;-71
2021/03/09 00:44:26;;;;;;;11.88;2.72;;;;;;;-1.74;58.02;101520.41;5008058;28;20159;-70
2021/03/09 00:46:53;;;;;;;7.78;3.10;;;;;;;-1.82;58.69;101528.09;4991304;28;20547;-71
2021/03/09 00:49:20;;;;;;;6.22;2.90;;;;;;;-1.64;58.03;101523.88;5020678;28;20059;-72
2021/03/09 00:51:47;;;;;;;11.77;3.85;;;;;;;-1.69;58.66;101531.59;5010872;28;20501;-70
2021/03/09 00:54:14;;;;;;;6.78;2.83;;;;;;;-1.70;58.30;101522.16;5038585;28;20088;-72
2021/03/09 00:56:40;;;;;;;10.82;3.65;;;;;;;-1.82;58.83;101514.31;5007356;28;20413;-71
2021/03/09 00:59:07;;;;;;;6.88;2.75;;;;;;;-1.82;58.66;101515.19;5022285;28;20100;-71
2021/03/09 01:01:34;;;;;;;9.00;3.90;;;;;;;-1.73;58.41;101514.38;5008379;28;20484;-72
2021/03/09 01:04:01;;;;;;;7.95;3.17;;;;;;;-1.82;58.68;101509.16;5027199;28;20059;-71
2021/03/09 01:06:28;;;;;;;11.25;2.80;;;;;;;-1.98;59.40;101513.38;5010193;28;20062;-71
2021/03/09 01:08:54;;;;;;;12.85;3.20;;;;;;;-1.95;59.86;101500.47;5023619;28;20051;-72
2021/03/09 01:11:21;;;;;;;8.93;3.53;;;;;;;-1.81;59.56;101513.47;4989590;28;20083;-72
2021/03/09 01:13:48;;;;;;;10.35;3.90;;;;;;;-1.83;59.34;101497.97;5016868;28;20054;-71
2021/03/09 01:16:15;;;;;;;8.05;2.80;;;;;;;-1.90;59.50;101500.50;5023738;28;20053;-71
2021/03/09 01:18:42;;;;;;;8.80;3.13;;;;;;;-1.88;59.19;101494.50;4992185;28;20046;-72
2021/03/09 01:21:08;;;;;;;9.40;3.63;;;;;;;-1.89;59.95;101491.91;5016330;28;20104;-73
2021/03/09 01:23:35;;;;;;;10.60;3.45;;;;;;;-1.74;59.11;101489.41;5018525;28;20129;-72
2021/03/09 01:26:02;;;;;;;9.50;3.85;;;;;;;-1.70;59.11;101486.00;5003866;28;20126;-72
2021/03/09 01:28:29;;;;;;;10.65;3.67;;;;;;;-1.71;59.70;101486.88;5004450;28;20113;-72
2021/03/09 01:30:55;;;;;;;8.27;3.53;;;;;;;-1.71;58.73;101483.41;5018152;28;20051;-70
2021/03/09 01:33:23;;;;;;;9.02;3.97;;;;;;;-1.60;58.71;101482.59;5006849;28;20127;-71
2021/03/09 01:35:50;;;;;;;7.78;3.33;;;;;;;-1.65;58.57;101481.72;5009737;28;20520;-71
2021/03/09 01:38:17;;;;;;;17.20;3.10;;;;;;;-1.66;58.58;101479.16;5011814;28;20417;-73
2021/03/09 01:40:43;;;;;;;8.80;3.58;;;;;;;-1.85;59.39;101475.56;5002856;28;20719;-70
2021/03/09 01:43:10;;;;;;;9.13;3.50;;;;;;;-1.84;60.10;101474.75;4994476;28;20050;-71
2021/03/09 01:45:37;;;;;;;12.73;4.15;;;;;;;-1.84;59.82;101467.00;5032398;28;20132;-70
2021/03/09 01:48:05;;;;;;;7.60;3.25;;;;;;;-1.84;59.38;101467.88;5030574;28;20121;-71
2021/03/09 01:50:36;;;;;;;9.50;3.75;;;;;;;-1.82;59.22;101465.28;5010795;28;20045;-73
2021/03/09 01:53:05;;;;;;;12.57;3.65;;;;;;;-1.84;59.13;101460.13;4995869;28;20045;-71
2021/03/09 01:55:33;;;;;;;10.02;3.53;;;;;;;-1.90;59.36;101459.22;5005088;28;20041;-70
2021/03/09 01:58:00;;;;;;;8.93;3.58;;;;;;;-2.07;59.89;101454.84;4989723;28;20045;-71
2021/03/09 02:00:28;;;;;;;8.93;3.70;;;;;;;-2.12;60.27;101460.78;5011448;28;20079;-71
2021/03/09 02:02:55;;;;;;;8.38;3.33;;;;;;;-1.98;60.70;101456.59;5002178;28;20136;-70
2021/03/09 02:05:22;;;;;;;7.75;3.63;;;;;;;-1.65;59.59;101458.50;4981142;28;20068;-70
2021/03/09 02:07:48;;;;;;;21.38;5.38;;;;;;;-1.62;60.10;101458.50;4989091;28;20052;-72
2021/03/09 02:10:15;;;;;;;13.18;3.80;;;;;;;-1.71;59.51;101453.31;5020209;28;20543;-70
2021/03/09 02:12:57;;;;;;;8.55;3.20;;;;;;;-1.63;58.76;101456.75;5022677;28;20038;-70
2021/03/09 02:15:30;;;;;;;9.50;4.38;;;;;;;-1.69;58.81;101454.16;5016458;28;20409;-72
2021/03/09 02:18:09;;;;;;;10.25;3.65;;;;;;;-1.76;58.08;101454.97;5007692;28;21868;-72
2021/03/09 02:20:51;;;;;;;8.38;3.63;;;;;;;-1.82;58.60;101449.78;5006234;28;20144;-71
2021/03/09 02:23:48;;;;;;;9.45;3.40;;;;;;;-1.84;58.07;101448.94;5030737;28;20075;-72
2021/03/09 02:26:21;;;;;;;10.15;3.72;;;;;;;-1.85;58.21;101444.59;5033437;28;20045;-72
2021/03/09 02:28:53;;;;;;;11.00;3.88;;;;;;;-1.99;58.98;101439.38;5014420;28;20045;-72
2021/03/09 02:31:20;;;;;;;14.20;4.88;;;;;;;-1.98;59.22;101437.66;5010782;28;20061;-72
2021/03/09 02:33:54;;;;;;;10.73;3.80;;;;;;;-2.00;59.34;101434.22;5020537;28;20053;-72
2021/03/09 02:36:24;;;;;;;16.23;4.55;;;;;;;-2.15;59.62;101438.44;5009567;28;20054;-73
2021/03/09 02:39:03;;;;;;;10.23;3.67;;;;;;;-2.11;59.88;101437.59;4994397;28;20045;-71
2021/03/09 02:41:30;;;;;;;13.40;3.78;;;;;;;-2.13;60.54;101433.28;5008624;28;20052;-71
2021/03/09 02:43:58;;;;;;;6.90;2.90;;;;;;;-2.17;60.70;101437.56;4980912;28;20049;-72
2021/03/09 02:46:27;;;;;;;10.68;3.78;;;;;;;-2.19;60.23;101439.28;5034410;28;20109;-71
2021/03/09 02:48:54;;;;;;;17.13;4.75;;;;;;;-2.33;60.70;101439.19;5023413;28;20585;-71
2021/03/09 02:51:28;;;;;;;10.13;4.05;;;;;;;-2.23;60.10;101440.09;5013062;28;20085;-70
2021/03/09 02:53:56;;;;;;;7.22;3.55;;;;;;;-2.28;60.42;101436.63;4982633;28;20057;-71
2021/03/09 02:56:24;;;;;;;9.63;4.03;;;;;;;-2.16;60.25;101428.09;5016995;28;20075;-71
2021/03/09 02:58:55;;;;;;;7.25;3.67;;;;;;;-2.09;60.92;101422.13;5016767;28;20041;-72
2021/03/09 03:01:26;;;;;;;10.10;3.42;;;;;;;-2.13;60.66;101423.81;4992193;28;20136;-71
2021/03/09 03:03:54;;;;;;;8.98;4.05;;;;;;;-2.20;60.21;101422.06;5011226;28;20420;-72
2021/03/09 03:06:21;;;;;;;11.15;3.42;;;;;;;-2.21;60.68;101432.38;5033983;28;20482;-72
2021/03/09 03:08:49;;;;;;;13.88;4.80;;;;;;;-2.10;59.51;101423.84;5003400;28;20049;-71
2021/03/09 03:11:18;;;;;;;7.70;3.50;;;;;;;-2.16;60.33;101425.50;5023867;28;20049;-72
2021/03/09 03:13:45;;;;;;;10.95;4.28;;;;;;;-2.20;60.07;101416.06;5003434;28;20102;-73
2021/03/09 03:16:13;;;;;;;17.00;4.82;;;;;;;-2.13;59.84;101417.81;5012662;28;20078;-72
2021/03/09 03:18:41;;;;;;;15.23;4.28;;;;;;;-2.24;60.16;101424.63;5001152;28;20079;-72
2021/03/09 03:21:13;;;;;;;12.35;3.83;;;;;;;-2.10;60.03;101423.00;4997954;28;20057;-73
2021/03/09 03:23:40;;;;;;;11.15;3.80;;;;;;;-2.18;59.89;101428.09;4994504;28;20049;-70
2021/03/09 03:26:10;;;;;;;10.43;3.88;;;;;;;-2.20;60.06;101432.41;5021153;28;20480;-72
2021/03/09 03:28:39;;;;;;;11.98;3.97;;;;;;;-2.15;60.33;101419.53;5004426;28;20144;-72
2021/03/09 03:31:06;;;;;;;14.57;3.70;;;;;;;-2.10;60.39;101421.28;5022484;28;20113;-73
2021/03/09 03:33:33;;;;;;;12.05;3.65;;;;;;;-2.13;60.44;101425.53;5020049;28;20148;-71
2021/03/09 03:36:03;;;;;;;10.90;3.63;;;;;;;-2.23;60.91;101418.59;5014231;28;20557;-72
2021/03/09 03:38:38;;;;;;;10.82;4.03;;;;;;;-2.44;61.27;101421.91;5008517;28;20051;-72
2021/03/09 03:41:06;;;;;;;9.73;3.92;;;;;;;-2.45;61.28;101415.03;4984831;28;20049;-72
2021/03/09 03:43:34;;;;;;;10.07;3.88;;;;;;;-2.52;61.22;101416.72;5020130;28;20057;-72
2021/03/09 03:46:01;;;;;;;10.25;3.72;;;;;;;-2.37;60.84;101423.69;5010323;28;20049;-71
2021/03/09 03:48:31;;;;;;;11.05;4.22;;;;;;;-2.42;60.88;101415.91;5016061;28;20558;-72
2021/03/09 03:51:02;;;;;;;10.25;3.70;;;;;;;-2.46;61.43;101410.72;5002776;28;20132;-73
2021/03/09 03:53:35;;;;;;;11.02;3.50;;;;;;;-2.53;61.47;101408.94;5029002;28;20191;-72
2021/03/09 03:56:14;;;;;;;10.18;3.65;;;;;;;-2.55;61.26;101409.81;4988440;28;20041;-72
2021/03/09 03:58:48;;;;;;;9.75;3.60;;;;;;;-2.70;62.10;101412.28;5023551;28;20088;-70
2021/03/09 04:01:16;;;;;;;8.38;3.40;;;;;;;-2.67;62.40;101401.97;5005820;28;20329;-73
2021/03/09 04:03:43;;;;;;;13.23;3.97;;;;;;;-2.51;61.95;101402.09;5006159;28;20053;-71
2021/03/09 04:06:10;;;;;;;9.55;3.50;;;;;;;-2.43;61.96;101403.88;4987110;28;20065;-71
2021/03/09 04:08:38;;;;;;;12.90;4.78;;;;;;;-2.21;60.61;101399.69;5015613;28;20129;-71
2021/03/09 04:11:05;;;;;;;10.07;4.30;;;;;;;-2.27;60.85;101394.50;5014647;28;20466;-72
2021/03/09 04:13:34;;;;;;;9.93;4.07;;;;;;;-2.20;59.50;101392.84;4998955;28;20075;-71
2021/03/09 04:16:01;;;;;;;13.65;4.53;;;;;;;-2.10;59.53;101394.63;4977083;28;20133;-72
2021/03/09 04:18:28;;;;;;;11.95;4.07;;;;;;;-2.18;59.63;101397.13;5013970;28;20140;-70
2021/03/09 04:20:57;;;;;;;10.30;3.67;;;;;;;-2.17;59.45;101387.69;5014877;28;20104;-73
2021/03/09 04:23:24;;;;;;;11.93;4.35;;;;;;;-2.12;59.93;101393.72;5014902;28;20038;-71
2021/03/09 04:25:52;;;;;;;9.20;3.42;;;;;;;-2.19;59.39;101399.72;4992545;28;20088;-70
2021/03/09 04:28:19;;;;;;;10.55;3.55;;;;;;;-2.11;59.55;101385.16;4987793;28;20081;-71
2021/03/09 04:30:46;;;;;;;10.13;3.10;;;;;;;-2.15;59.72;101386.84;4992526;28;20045;-71
2021/03/09 04:33:13;;;;;;;8.27;3.47;;;;;;;-2.21;59.62;101385.94;5022817;28;20734;-70
2021/03/09 04:35:40;;;;;;;7.80;3.55;;;;;;;-2.18;60.29;101388.53;4976042;28;20036;-71
2021/03/09 04:38:07;;;;;;;10.00;3.30;;;;;;;-2.11;59.17;101387.75;4986077;28;20041;-71
2021/03/09 04:40:34;;;;;;;10.07;3.70;;;;;;;-2.11;59.62;101386.00;5014103;28;20357;-72
2021/03/09 04:43:03;;;;;;;13.00;3.83;;;;;;;-2.18;60.00;101378.22;5016721;28;20128;-71
2021/03/09 04:45:31;;;;;;;9.63;3.70;;;;;;;-2.04;59.38;101385.16;5020298;23;21252;-72
2021/03/09 04:48:01;;;;;;;9.85;3.42;;;;;;;-2.08;59.83;101385.16;5070829;28;20104;-70
2021/03/09 04:50:29;;;;;;;11.52;3.20;;;;;;;-2.13;59.74;101387.72;5043452;28;20045;-72
2021/03/09 04:52:56;;;;;;;14.73;4.18;;;;;;;-2.13;59.78;101376.53;5035338;28;20102;-73
2021/03/09 04:55:24;;;;;;;8.93;3.97;;;;;;;-2.23;60.15;101379.94;5008736;28;20567;-71
2021/03/09 04:57:51;;;;;;;17.35;4.47;;;;;;;-2.15;60.22;101376.53;5032618;28;20049;-71
2021/03/09 05:00:20;;;;;;;10.73;3.53;;;;;;;-2.15;58.87;101373.94;5015717;28;20089;-69
2021/03/09 05:02:51;;;;;;;11.35;3.80;;;;;;;-2.18;59.43;101375.66;4998192;28;20512;-69
2021/03/09 05:05:19;;;;;;;10.98;3.33;;;;;;;-2.16;59.55;101379.97;5016657;28;20081;-71
2021/03/09 05:07:46;;;;;;;12.25;4.20;;;;;;;-2.11;59.70;101373.13;5025831;28;20030;-70
2021/03/09 05:10:14;;;;;;;9.20;3.72;;;;;;;-2.13;59.68;101376.53;4996800;28;20056;-72
2021/03/09 05:12:43;;;;;;;10.43;4.15;;;;;;;-2.08;59.11;101374.84;5010221;28;20285;-71
2021/03/09 05:15:11;;;;;;;18.40;4.20;;;;;;;-2.11;59.27;101369.69;5017311;28;20139;-69
2021/03/09 05:17:38;;;;;;;12.07;3.40;;;;;;;-2.13;59.20;101379.09;5003462;28;20045;-70
2021/03/09 05:20:08;;;;;;;10.52;3.70;;;;;;;-2.18;59.08;101376.50;5035700;28;20052;-70
2021/03/09 05:22:35;;;;;;;8.23;4.18;;;;;;;-2.21;59.30;101378.19;4999014;28;20043;-71
2021/03/09 05:25:03;;;;;;;8.18;4.03;;;;;;;-2.24;59.69;101373.91;5015393;28;20072;-70
2021/03/09 05:27:30;;;;;;;13.23;3.97;;;;;;;-2.31;59.75;101377.28;5008231;28;20416;-69
2021/03/09 05:29:57;;;;;;;11.05;3.80;;;;;;;-2.27;59.46;101376.47;5016011;28;20134;-71
2021/03/09 05:32:24;;;;;;;13.93;3.75;;;;;;;-2.25;59.63;101368.72;5018446;28;20132;-71
2021/03/09 05:34:51;;;;;;;11.95;4.32;;;;;;;-2.29;60.01;101380.75;5023579;28;20112;-72
2021/03/09 05:37:18;;;;;;;10.30;4.07;;;;;;;-2.27;59.79;101379.03;4996208;28;20047;-72
2021/03/09 05:39:45;;;;;;;11.32;5.13;;;;;;;-2.26;59.83;101382.47;5018656;28;20563;-71
2021/03/09 05:42:12;;;;;;;12.68;4.18;;;;;;;-2.27;59.36;101383.34;5026218;28;20066;-71
2021/03/09 05:44:39;;;;;;;11.63;4.15;;;;;;;-2.25;59.71;101386.78;4991367;28;20120;-73
2021/03/09 05:47:06;;;;;;;11.85;4.22;;;;;;;-2.23;60.21;101380.78;5023714;28;20046;-71
2021/03/09 05:49:33;;;;;;;14.30;4.20;;;;;;;-2.26;59.54;101378.19;5030889;28;20041;-70
2021/03/09 05:52:00;;;;;;;9.20;3.53;;;;;;;-2.18;59.91;101370.50;5011410;28;20045;-72
2021/03/09 05:54:27;;;;;;;13.90;4.35;;;;;;;-2.11;59.45;101369.69;4995220;28;20141;-72
2021/03/09 05:56:54;;;;;;;9.75;3.97;;;;;;;-2.10;59.35;101369.69;5024493;28;20046;-71
2021/03/09 05:59:21;;;;;;;14.30;4.38;;;;;;;-2.02;59.40;101372.31;5034342;28;20065;-72
2021/03/09 06:01:50;;;;;;;14.15;4.07;;;;;;;-1.88;59.62;101373.22;5007380;28;20033;-72
2021/03/09 06:04:17;;;;;;;13.70;5.65;;;;;;;-1.76;59.64;101369.81;4994028;28;20156;-70
2021/03/09 06:06:44;;;;;;;8.40;3.97;;;;;;;-1.72;59.41;101366.38;5025221;28;20049;-70
2021/03/09 06:09:37;;;;;;;11.63;4.72;;;;;;;-1.55;58.33;101372.47;5004341;28;20118;-72
2021/03/09 06:12:16;;;;;;;13.60;4.35;;;;;;;-1.28;58.07;101370.78;5006925;28;20081;-72
2021/03/09 06:15:03;;;;;;;11.55;3.85;;;;;;;-1.20;57.77;101368.22;5025511;28;20050;-72
2021/03/09 06:17:37;;;;;;;13.00;4.45;;;;;;;-1.21;57.25;101374.28;5024748;28;20432;-73
2021/03/09 06:20:16;;;;;;;9.98;4.50;;;;;;;-1.12;57.12;101375.13;4997227;28;20129;-72
2021/03/09 06:22:51;;;;;;;12.95;4.40;;;;;;;-0.91;55.86;101371.69;5012681;28;20132;-74
2021/03/09 06:25:30;;;;;;;11.30;4.43;;;;;;;-0.56;55.70;101368.22;5013557;28;20145;-70
2021/03/09 06:28:02;;;;;;;10.38;4.93;;;;;;;-0.33;54.99;101363.00;5005815;28;20130;-72
2021/03/09 06:30:33;;;;;;;16.60;5.00;;;;;;;-0.22;53.99;101370.75;5008642;28;20049;-70
2021/03/09 06:33:07;;;;;;;15.00;4.85;;;;;;;0.00;54.06;101372.41;5037428;28;20041;-72
2021/03/09 06:35:36;;;;;;;11.23;4.60;;;;;;;0.26;52.56;101367.09;5010778;28;20472;-70
2021/03/09 06:38:24;;;;;;;14.82;5.55;;;;;;;-0.27;54.47;101371.63;5013221;28;20049;-70
2021/03/09 06:41:11;;;;;;;13.57;5.95;;;;;;;0.40;52.52;101369.63;4991099;28;20046;-72
2021/03/09 06:43:38;;;;;;;;;;;;;;;0.70;51.81;101378.97;5023116;28;20060;-75
2021/03/09 06:46:22;;;;;;;10.32;4.10;;;;;;;1.07;50.11;101382.16;4995069;28;19972;-69
2021/03/09 06:49:01;;;;;;;11.77;4.45;;;;;;;1.54;49.55;101373.09;4999379;28;20072;-74
2021/03/09 06:51:30;;;;;;;8.20;4.22;;;;;;;2.07;47.57;101382.03;4986849;28;20087;-75
2021/03/09 06:54:07;;;;;;;11.30;5.82;;;;;;;1.70;47.76;101376.41;5012976;28;20079;-74
2021/03/09 06:56:36;;;;;;;11.13;5.40;;;;;;;2.10;46.94;101375.97;4997646;28;20080;-73
2021/03/09 06:59:16;;;;;;;15.57;5.25;;;;;;;2.31;46.38;101374.84;4992869;28;20137;-74
2021/03/09 07:01:43;;;;;;;11.40;4.85;;;;;;;2.42;46.26;101376.41;5020642;28;20414;-74
2021/03/09 07:04:22;;;;;;;18.17;6.32;;;;;;;2.41;46.41;101377.28;5030841;28;20057;-74
2021/03/09 07:06:48;;;;;;;;;;;;;;;2.46;46.05;101377.22;5018873;28;20363;-74
2021/03/09 07:09:15;;;;;;;;;;;;;;;2.06;46.59;101379.47;5020001;28;19927;-74
2021/03/09 07:11:43;;;;;;;11.93;4.78;;;;;;;1.97;47.12;101381.28;5035577;28;19921;-73
2021/03/09 07:14:12;;;;;;;16.02;5.00;;;;;;;1.99;47.00;101376.94;5013283;28;20081;-75
2021/03/09 07:16:39;;;;;;;13.35;5.53;;;;;;;1.78;48.06;101380.63;5009353;28;20092;-74
2021/03/09 07:19:09;;;;;;;12.45;5.45;;;;;;;1.94;47.02;101373.56;5025600;28;20057;-74
2021/03/09 07:21:36;;;;;;;18.88;6.15;;;;;;;1.96;47.47;101383.91;5006500;28;20045;-75
2021/03/09 07:24:03;;;;;;;15.10;5.93;;;;;;;1.73;47.41;101384.16;5009992;28;20194;-74
2021/03/09 07:26:30;;;;;;;17.52;6.35;;;;;;;1.78;47.63;101377.19;5018790;28;20065;-74
2021/03/09 07:28:58;;;;;;;14.40;5.63;;;;;;;2.14;46.82;101388.03;5007851;28;20065;-74
2021/03/09 07:31:25;;;;;;;13.05;5.47;;;;;;;2.27;46.90;101387.88;5018590;28;20121;-75
2021/03/09 07:33:52;;;;;;;19.35;6.03;;;;;;;2.90;45.74;101383.53;4991438;28;20211;-72
2021/03/09 07:36:20;;;;;;;16.45;6.90;;;;;;;3.47;43.67;101381.75;5022976;28;20057;-74
2021/03/09 07:38:50;;;;;;;14.38;5.53;;;;;;;3.97;42.88;101379.94;4983762;28;20064;-72
2021/03/09 07:41:17;;;;;;;13.73;5.93;;;;;;;4.35;42.12;101378.28;4984374;28;20112;-71
2021/03/09 07:43:44;;;;;;;15.48;7.43;;;;;;;4.36;41.73;101377.38;5007715;28;20098;-73
2021/03/09 07:46:11;;;;;;;17.23;6.15;;;;;;;4.85;41.02;101378.06;5018076;28;20084;-78
2021/03/09 07:48:49;;;;;;;17.88;6.88;;;;;;;4.60;44.36;101377.78;4998524;28;20104;-72
2021/03/09 07:51:15;;;;;;;20.33;6.18;;;;;;;4.87;40.65;101371.94;4979656;28;20101;-76
2021/03/09 07:54:07;;;;;;;19.42;6.40;;;;;;;5.52;40.20;101369.44;4995679;28;20030;-71
2021/03/09 07:56:33;;;;;;;12.65;5.72;;;;;;;7.05;36.66;101369.38;4975348;28;20052;-69
2021/03/09 07:59:08;;;;;;;15.90;5.75;;;;;;;7.86;35.29;101363.97;4989924;28;20045;-69
2021/03/09 08:01:45;;;;;;;11.75;5.85;;;;;;;8.32;34.12;101362.28;5013991;28;20121;-69
2021/03/09 08:04:11;;;;;;;17.90;6.10;;;;;;;8.03;35.20;101355.50;4993786;28;20037;-69
2021/03/09 08:06:42;;;;;;;15.18;6.10;;;;;;;8.76;33.87;101349.25;5012157;28;20045;-68
2021/03/09 08:09:35;;;;;;;16.98;6.20;;;;;;;7.17;36.11;101353.25;5008129;28;20129;-68
2021/03/09 08:12:11;;;;;;;16.70;6.07;;;;;;;7.36;35.26;101353.50;5003322;28;20157;-67
2021/03/09 08:14:38;;;;;;;16.27;6.05;;;;;;;7.95;34.51;101345.28;4984821;28;20117;-67
2021/03/09 08:17:25;;;;;;;12.43;5.85;;;;;;;8.01;34.30;101347.66;4984382;28;20053;-71
2021/03/09 08:19:52;;;;;;;12.63;5.95;;;;;;;7.88;34.21;101351.69;4996713;28;20065;-69
2021/03/09 08:22:36;;;;;;;16.13;6.18;;;;;;;7.57;35.07;101349.28;5024748;28;20093;-69
2021/03/09 08:25:04;;;;;;;16.15;6.18;;;;;;;7.95;34.81;101342.66;5018125;28;20050;-70
2021/03/09 08:27:31;;;;;;;15.40;7.68;;;;;;;8.14;37.38;101340.22;4997959;28;20084;-71
2021/03/09 08:30:06;;;;;;;14.57;5.82;;;;;;;7.22;36.70;101340.88;5003854;28;20132;-70
2021/03/09 08:32:38;;;;;;;13.68;6.13;;;;;;;7.53;36.12;101343.28;5016793;28;20103;-70
2021/03/09 08:35:14;;;;;;;13.88;7.13;;;;;;;6.45;37.24;101347.69;5019239;28;20168;-70
2021/03/09 08:37:46;;;;;;;13.18;6.10;;;;;;;6.98;37.00;101334.69;5010616;28;20052;-72
2021/03/09 08:40:17;;;;;;;13.30;5.78;;;;;;;7.67;34.90;101334.09;4998421;28;20156;-71
2021/03/09 08:43:02;;;;;;;18.63;7.00;;;;;;;7.95;34.22;101334.81;5014926;28;20049;-69
2021/03/09 08:45:38;;;;;;;12.88;6.10;;;;;;;8.31;33.09;101327.31;5013161;28;20072;-69
2021/03/09 08:48:08;;;;;;;14.80;6.55;;;;;;;8.72;33.04;101330.13;4994914;28;20045;-67
2021/03/09 08:50:43;;;;;;;14.52;6.20;;;;;;;9.16;32.31;101329.25;4996699;28;20064;-66
2021/03/09 08:53:34;;;;;;;12.57;6.22;;;;;;;9.85;30.53;101320.06;5011643;28;20739;-67
2021/03/09 08:56:05;;;;;;;12.70;5.97;;;;;;;10.67;29.80;101326.84;4995387;28;20059;-67
2021/03/09 08:58:33;;;;;;;16.40;6.45;;;;;;;10.02;30.06;101327.19;4980127;28;20073;-66
2021/03/09 09:01:00;;;;;;;16.75;6.03;;;;;;;10.57;29.99;101316.75;5019767;28;20058;-67
2021/03/09 09:03:34;;;;;;;15.20;5.63;;;;;;;11.50;27.74;101308.63;5019793;28;20057;-66
2021/03/09 09:06:02;;;;;;;13.38;5.25;;;;;;;11.48;27.64;101313.09;5020358;28;20099;-66
2021/03/09 09:08:29;;;;;;;15.45;5.38;;;;;;;11.15;27.66;101308.63;4997250;28;20081;-69
2021/03/09 09:10:57;;;;;;;15.90;6.05;;;;;;;11.02;28.09;101311.97;5018807;28;20057;-68
2021/03/09 09:13:31;;;;;;;17.23;6.20;;;;;;;11.47;27.93;101313.19;4983012;28;20054;-67
2021/03/09 09:15:59;;;;;;;14.57;5.22;;;;;;;11.22;28.34;101305.72;5015836;28;20058;-65
2021/03/09 09:18:26;;;;;;;13.00;5.47;;;;;;;10.68;28.43;101304.88;5010858;28;20046;-66
2021/03/09 09:20:53;;;;;;;9.93;5.22;;;;;;;10.21;29.21;101307.94;5017493;28;20559;-66
2021/03/09 09:23:21;;;;;;;12.73;5.95;;;;;;;9.73;29.96;101309.28;4995556;28;20092;-66
2021/03/09 09:25:50;;;;;;;14.48;5.22;;;;;;;9.26;30.84;101304.28;5019972;28;20191;-66
2021/03/09 09:28:41;;;;;;;13.85;5.97;;;;;;;7.63;33.83;101298.41;4993194;28;20119;-68
2021/03/09 09:31:15;;;;;;;12.63;5.97;;;;;;;6.43;35.75;101306.78;5000310;28;20061;-65
2021/03/09 09:33:52;;;;;;;15.85;5.93;;;;;;;6.16;36.98;101311.09;5004270;28;20091;-66
2021/03/09 09:36:20;;;;;;;13.65;5.18;;;;;;;6.13;36.48;101306.81;5016647;28;20054;-68
2021/03/09 09:38:51;;;;;;;11.80;5.85;;;;;;;6.14;36.15;101307.66;5018012;28;20064;-65
2021/03/09 09:41:20;;;;;;;15.13;5.70;;;;;;;5.47;37.89;101303.41;5014756;28;20490;-67
2021/03/09 09:43:47;;;;;;;11.85;5.38;;;;;;;5.49;39.02;101306.84;4995795;28;20073;-66
2021/03/09 09:46:19;;;;;;;12.35;5.25;;;;;;;5.69;38.10;101303.69;4975318;28;20072;-67
2021/03/09 09:48:47;;;;;;;18.23;4.93;;;;;;;6.00;37.73;101297.63;4993460;28;20173;-67
2021/03/09 09:51:16;;;;;;;18.20;5.45;;;;;;;5.91;36.46;101298.72;4994010;28;20060;-70
2021/03/09 09:53:45;;;;;;;12.02;4.13;;;;;;;5.91;35.98;101296.09;4993259;28;20120;-67
2021/03/09 09:56:17;;;;;;;11.45;4.63;;;;;;;5.48;36.67;101297.28;5006456;28;20085;-68
2021/03/09 09:58:45;;;;;;;7.38;3.92;;;;;;;5.56;36.36;101302.31;4994889;28;20061;-66
2021/03/09 10:01:23;;;;;;;15.38;4.88;;;;;;;5.58;36.60;101298.78;5001007;28;20081;-70
2021/03/09 10:04:00;;;;;;;12.70;4.53;;;;;;;5.38;38.22;101293.22;4982123;28;20203;-72
2021/03/09 10:06:51;;;;;;;10.00;4.03;;;;;;;5.97;36.16;101295.94;4991412;28;20058;-70
2021/03/09 10:09:42;;;;;;;11.35;4.72;;;;;;;5.88;36.85;101295.31;4997156;28;20103;-67
2021/03/09 10:12:09;;;;;;;17.80;4.07;;;;;;;6.12;36.64;101299.84;5013079;28;20075;-68
2021/03/09 10:14:50;;;;;;;9.30;3.70;;;;;;;5.57;37.08;101299.63;4965865;28;20156;-66
2021/03/09 10:17:17;;;;;;;8.15;4.10;;;;;;;5.65;36.72;101294.22;5009983;28;20506;-68
2021/03/09 10:19:44;;;;;;;13.82;3.92;;;;;;;5.56;36.88;101290.09;4978517;28;20207;-67
2021/03/09 10:22:23;;;;;;;8.05;3.45;;;;;;;5.76;35.75;101294.78;5011727;28;20045;-67
2021/03/09 10:24:50;;;;;;;8.18;3.35;;;;;;;5.55;35.55;101290.16;5014238;28;20107;-67
2021/03/09 10:27:20;;;;;;;11.02;3.63;;;;;;;5.71;35.64;101296.66;4989853;28;20057;-69
2021/03/09 10:29:48;;;;;;;10.95;3.50;;;;;;;5.79;35.38;101289.44;4996895;28;20188;-70
2021/03/09 10:32:16;;;;;;;11.40;3.85;;;;;;;6.12;34.59;101285.94;4995867;28;20120;-66
2021/03/09 10:34:49;;;;;;;7.95;3.05;;;;;;;6.07;34.98;101289.53;4985381;28;20508;-66
2021/03/09 10:37:17;;;;;;;13.85;3.38;;;;;;;5.72;35.26;101280.09;4998923;28;20461;-66
2021/03/09 10:39:57;;;;;;;9.93;3.72;;;;;;;5.85;34.65;101283.19;5011235;28;20089;-65
2021/03/09 10:42:38;;;;;;;6.43;3.30;;;;;;;6.07;34.25;101283.44;4988849;28;20898;-68
2021/03/09 10:45:25;;;;;;;5.95;3.00;;;;;;;5.94;34.31;101280.34;5016736;28;20496;-67
2021/03/09 10:47:54;;;;;;;6.70;3.33;;;;;;;6.22;34.08;101280.41;5011630;28;20045;-66
2021/03/09 10:50:23;;;;;;;7.60;3.25;;;;;;;5.90;34.33;101276.09;5012967;28;20436;-67
2021/03/09 10:52:51;;;;;;;6.80;3.00;;;;;;;5.99;34.73;101274.97;4980771;28;20179;-69
2021/03/09 10:55:18;;;;;;;12.68;4.38;;;;;;;6.25;34.86;101275.06;4983768;28;20171;-66
2021/03/09 10:57:45;;;;;;;12.63;4.15;;;;;;;6.10;35.31;101272.91;4993016;28;20574;-66
2021/03/09 11:00:14;;;;;;;6.25;3.20;;;;;;;6.42;34.21;101268.47;5009231;28;20681;-66
2021/03/09 11:02:41;;;;;;;10.20;3.22;;;;;;;6.25;34.90;101269.81;4993932;28;20088;-68
2021/03/09 11:05:09;;;;;;;7.45;3.28;;;;;;;6.05;34.73;101270.44;5026841;23;20299;-71
2021/03/09 11:07:35;;;;;;;10.88;3.35;;;;;;;6.08;34.42;101269.50;5001711;28;20512;-72
2021/03/09 11:10:06;;;;;;;6.28;3.00;;;;;;;6.18;33.99;101264.84;5025443;28;20117;-71
2021/03/09 11:12:33;;;;;;;10.70;3.35;;;;;;;6.61;33.06;101261.72;5036494;28;20045;-75
2021/03/09 11:15:19;;;;;;;8.60;2.53;;;;;;;6.49;32.32;101262.16;5028964;28;20133;-79
2021/03/09 11:17:46;;;;;;;6.50;2.33;;;;;;;6.54;33.22;101257.63;5015810;28;20042;-79
2021/03/09 11:20:14;;;;;;;5.53;1.65;;;;;;;6.81;33.84;101258.47;4997323;28;20069;-79
2021/03/09 11:22:41;;;;;;;4.50;2.05;;;;;;;6.36;32.43;101259.06;4994563;28;20046;-73
2021/03/09 11:25:22;;;;;;;4.75;2.38;;;;;;;6.08;32.51;101252.06;5021809;28;20079;-72
2021/03/09 11:27:49;;;;;;;6.75;2.65;;;;;;;6.12;32.29;101252.78;5017603;28;20085;-73
2021/03/09 11:30:17;;;;;;;12.65;2.30;;;;;;;6.09;32.39;101259.00;5013201;28;20093;-72
2021/03/09 11:32:43;;;;;;;8.93;2.20;;;;;;;6.14;32.90;101247.53;5007293;28;20054;-72
2021/03/09 11:35:11;;;;;;;10.85;3.05;;;;;;;6.02;33.11;101241.78;5017497;28;20076;-73
2021/03/09 11:37:38;;;;;;;6.28;2.88;;;;;;;5.85;34.25;101241.38;5015500;28;20430;-72